Time;durP1;ratioP1;P1;durP2;ratioP2;P2;SDS_P1;SDS_P2;PMS_P1;PMS_P2;Temp;Humidity;BMP_temperature;BMP_pressure;BME280_temperature;BME280_humidity;BME280_pressure;Samples;Min_cycle;Max_cycle;Signal;HPM_P1;HPM_P2
2022/06/07 04:02:06;;;;;;;9.50;2.53;;;13.10;96.30;;;;;;5228563;23;20496;-75
2022/06/07 04:04:33;;;;;;;4.17;2.30;;;13.20;96.30;;;;;;4993201;28;20483;-75
2022/06/07 04:09:42;;;;;;;5.33;2.40;;;13.40;96.30;;;;;;4992851;28;20444;-75
2022/06/07 04:12:14;;;;;;;2.77;2.20;;;13.50;96.30;;;;;;4993339;28;20468;-74
2022/06/07 04:14:42;;;;;;;5.40;2.30;;;13.60;96.30;;;;;;4993907;28;20191;-75
2022/06/07 04:17:08;;;;;;;3.70;2.27;;;13.80;96.30;;;;;;4993950;28;20423;-74
2022/06/07 04:19:35;;;;;;;2.07;1.83;;;13.80;96.30;;;;;;4992353;28;20409;-75
2022/06/07 04:22:02;;;;;;;2.67;2.33;;;13.80;96.30;;;;;;4992877;28;20441;-74
2022/06/07 04:24:27;;;;;;;3.70;2.60;;;13.80;96.30;;;;;;4992784;28;20817;-74
2022/06/07 04:26:53;;;;;;;3.63;2.80;;;13.80;96.30;;;;;;4992777;28;20463;-75
2022/06/07 04:29:18;;;;;;;3.40;2.50;;;13.80;96.30;;;;;;4992225;28;20688;-74
2022/06/07 04:31:44;;;;;;;3.13;2.43;;;13.80;96.30;;;;;;4992613;28;20581;-74
2022/06/07 04:34:10;;;;;;;4.20;2.30;;;13.80;96.30;;;;;;4992782;28;20166;-75
2022/06/07 04:36:36;;;;;;;4.93;2.47;;;13.90;96.30;;;;;;4975213;28;20173;-75
2022/06/07 04:39:04;;;;;;;2.03;1.93;;;13.90;96.30;;;;;;4991930;28;20902;-75
2022/06/07 04:41:30;;;;;;;4.10;2.50;;;13.90;96.30;;;;;;4992548;28;20280;-75
2022/06/07 04:43:56;;;;;;;4.10;2.60;;;13.90;96.30;;;;;;4992667;28;20500;-76
2022/06/07 04:46:22;;;;;;;2.70;2.50;;;13.90;96.30;;;;;;4992598;28;20196;-75
2022/06/07 04:48:49;;;;;;;4.00;2.50;;;14.00;96.30;;;;;;4987725;28;20409;-75
2022/06/07 04:51:24;;;;;;;5.17;2.63;;;14.00;96.30;;;;;;4992128;28;20462;-75
2022/06/07 04:53:51;;;;;;;6.20;2.30;;;14.00;96.30;;;;;;4992479;28;20487;-75
2022/06/07 04:56:24;;;;;;;2.70;2.50;;;14.10;96.30;;;;;;4969936;28;20488;-75
2022/06/07 04:58:50;;;;;;;4.93;2.70;;;14.10;96.30;;;;;;4987840;28;20468;-76
2022/06/07 05:01:19;;;;;;;2.60;2.40;;;14.20;96.30;;;;;;4992481;28;20447;-76
2022/06/07 05:03:45;;;;;;;2.57;2.37;;;14.30;96.30;;;;;;4992462;28;20909;-75
2022/06/07 05:06:26;;;;;;;4.63;2.40;;;14.40;96.30;;;;;;4993162;28;20416;-76
2022/06/07 05:08:55;;;;;;;2.40;2.20;;;14.50;96.30;;;;;;4996345;28;20400;-75
2022/06/07 05:11:21;;;;;;;3.43;2.10;;;14.60;96.30;;;;;;4996529;28;20827;-75
2022/06/07 05:13:46;;;;;;;3.43;2.50;;;14.60;96.30;;;;;;4996431;28;20463;-76
2022/06/07 05:16:12;;;;;;;2.53;2.33;;;14.60;96.30;;;;;;4979341;28;20224;-75
2022/06/07 05:18:38;;;;;;;2.90;2.60;;;14.70;96.30;;;;;;4996238;28;20634;-75
2022/06/07 05:21:06;;;;;;;2.57;2.37;;;14.80;96.30;;;;;;4996453;28;20197;-75
2022/06/07 05:23:32;;;;;;;3.00;2.53;;;14.80;96.30;;;;;;4996264;28;20421;-74
2022/06/07 05:26:08;;;;;;;10.20;2.63;;;14.90;96.30;;;;;;4994808;28;20412;-74
2022/06/07 05:28:34;;;;;;;2.60;2.40;;;15.00;96.30;;;;;;4977954;28;20177;-73
2022/06/07 05:31:00;;;;;;;5.10;2.90;;;15.20;96.30;;;;;;4976224;28;20441;-73
2022/06/07 05:33:25;;;;;;;3.10;2.60;;;15.30;96.30;;;;;;4976481;28;20190;-73
2022/06/07 05:35:51;;;;;;;3.97;2.60;;;15.20;96.30;;;;;;4976579;28;20189;-74
2022/06/07 05:38:17;;;;;;;3.30;2.57;;;15.30;96.30;;;;;;4976490;28;20711;-73
2022/06/07 05:40:42;;;;;;;6.47;2.80;;;15.60;96.30;;;;;;4981541;28;20193;-73
2022/06/07 05:43:10;;;;;;;4.27;2.37;;;15.90;96.30;;;;;;4995932;28;20184;-74
2022/06/07 05:45:36;;;;;;;4.30;2.73;;;16.10;96.30;;;;;;4995880;28;20178;-74
2022/06/07 05:48:02;;;;;;;6.13;3.03;;;16.20;96.30;;;;;;4995496;28;20414;-74
2022/06/07 05:50:27;;;;;;;5.70;2.67;;;16.30;96.30;;;;;;4995571;28;20181;-76
2022/06/07 05:52:53;;;;;;;4.93;2.30;;;16.40;96.30;;;;;;4978238;28;20212;-76
2022/06/07 05:55:18;;;;;;;4.43;2.53;;;16.40;96.30;;;;;;4978259;28;20174;-76
2022/06/07 05:57:49;;;;;;;3.40;2.33;;;16.50;96.30;;;;;;4995409;28;20288;-77
2022/06/07 06:00:16;;;;;;;3.13;2.83;;;16.50;96.30;;;;;;4995449;28;20629;-77
2022/06/07 06:02:41;;;;;;;3.77;2.37;;;16.70;96.30;;;;;;4995752;28;20805;-76
2022/06/07 06:05:07;;;;;;;6.10;2.73;;;16.70;96.30;;;;;;4995579;28;20408;-76
2022/06/07 06:07:33;;;;;;;5.10;2.63;;;16.60;96.30;;;;;;4995234;28;20308;-76
2022/06/07 06:12:42;;;;;;;3.67;2.60;;;16.60;96.30;;;;;;4994061;28;20208;-77
2022/06/07 06:15:09;;;;;;;2.43;2.13;;;16.80;96.30;;;;;;4975958;28;20414;-76
2022/06/07 06:17:35;;;;;;;3.20;2.27;;;16.80;96.30;;;;;;4977075;28;20899;-76
2022/06/07 06:20:01;;;;;;;2.30;2.10;;;16.80;96.30;;;;;;4985207;28;20432;-77
2022/06/07 06:22:26;;;;;;;4.30;2.33;;;17.10;96.30;;;;;;4966715;28;20210;-77
2022/06/07 06:24:52;;;;;;;3.57;2.30;;;17.20;96.30;;;;;;4975705;28;20601;-76
2022/06/07 06:27:18;;;;;;;3.30;2.73;;;17.20;96.30;;;;;;4985998;28;20177;-77
2022/06/07 06:29:43;;;;;;;2.87;2.30;;;17.20;96.30;;;;;;4994717;28;20174;-76
2022/06/07 06:32:09;;;;;;;2.93;2.70;;;17.30;96.30;;;;;;4994890;28;20201;-78
2022/06/07 06:34:35;;;;;;;17.23;2.90;;;17.20;96.30;;;;;;4994898;28;20180;-77
2022/06/07 06:37:00;;;;;;;3.67;2.10;;;17.50;96.30;;;;;;4977060;28;20182;-76
2022/06/07 06:39:26;;;;;;;7.47;2.50;;;17.50;96.30;;;;;;4984551;28;20184;-77
2022/06/07 06:41:52;;;;;;;3.13;2.70;;;17.50;96.30;;;;;;4975329;28;20654;-77
2022/06/07 06:44:18;;;;;;;4.00;2.40;;;17.60;96.30;;;;;;4993646;28;20432;-77
2022/06/07 06:46:47;;;;;;;3.70;2.17;;;17.90;96.30;;;;;;4994402;28;20202;-77
2022/06/07 06:49:14;;;;;;;2.50;2.20;;;18.10;96.30;;;;;;4994428;28;20236;-77
2022/06/07 06:51:41;;;;;;;2.90;2.30;;;18.20;96.30;;;;;;4994464;28;20431;-76
2022/06/07 06:54:09;;;;;;;4.23;2.13;;;18.10;96.30;;;;;;4994604;28;20573;-76
2022/06/07 06:56:34;;;;;;;3.33;2.00;;;18.00;96.30;;;;;;4976940;28;20413;-76
2022/06/07 06:59:00;;;;;;;3.50;1.80;;;18.00;96.30;;;;;;4994244;28;20443;-78
2022/06/07 07:01:31;;;;;;;3.20;2.60;;;18.00;96.30;;;;;;4976840;28;20255;-76
2022/06/07 07:04:00;;;;;;;2.07;1.97;;;18.20;96.30;;;;;;4994538;28;20221;-77
2022/06/07 07:06:26;;;;;;;3.40;2.30;;;18.20;96.30;;;;;;4994434;28;20412;-76
2022/06/07 07:08:52;;;;;;;4.10;2.37;;;18.30;96.30;;;;;;4994065;28;20405;-76
2022/06/07 07:11:18;;;;;;;3.03;2.10;;;18.30;96.30;;;;;;4973330;28;20449;-77
2022/06/07 07:13:44;;;;;;;5.60;2.83;;;18.20;96.30;;;;;;4974940;28;20205;-77
2022/06/07 07:16:19;;;;;;;2.70;2.40;;;18.10;96.30;;;;;;4974380;28;20181;-77
2022/06/07 07:18:46;;;;;;;3.40;2.20;;;18.10;96.30;;;;;;4974338;28;20417;-78
2022/06/07 07:21:18;;;;;;;3.83;2.47;;;18.00;96.30;;;;;;4974431;28;20524;-77
2022/06/07 07:23:44;;;;;;;3.60;2.50;;;18.00;96.30;;;;;;4974422;28;20490;-77
2022/06/07 07:26:19;;;;;;;3.80;2.60;;;18.10;96.30;;;;;;4974174;28;20894;-77
2022/06/07 07:28:45;;;;;;;3.47;2.60;;;17.80;96.30;;;;;;4973568;28;20480;-77
2022/06/07 07:31:14;;;;;;;4.87;2.10;;;17.60;96.30;;;;;;4974172;28;20444;-78
2022/06/07 07:33:41;;;;;;;6.27;2.47;;;17.30;96.30;;;;;;4957254;28;20515;-76
2022/06/07 07:36:07;;;;;;;3.47;2.33;;;17.20;96.30;;;;;;4974468;28;20413;-77
2022/06/07 07:38:34;;;;;;;4.37;2.07;;;17.10;96.30;;;;;;4974154;28;20886;-77
2022/06/07 07:41:00;;;;;;;2.70;1.70;;;16.90;96.30;;;;;;4974381;28;20437;-77
2022/06/07 07:43:25;;;;;;;3.97;1.77;;;16.90;96.30;;;;;;4974338;28;20414;-77
2022/06/07 07:45:53;;;;;;;2.30;2.10;;;16.80;96.30;;;;;;4974356;28;20661;-76
2022/06/07 07:48:19;;;;;;;2.50;1.93;;;16.80;96.30;;;;;;4956133;28;20281;-77
2022/06/07 07:50:46;;;;;;;2.43;1.37;;;16.80;96.30;;;;;;4974222;28;20437;-76
2022/06/07 07:53:12;;;;;;;1.60;1.50;;;16.70;96.30;;;;;;4974103;28;20466;-76
2022/06/07 07:55:46;;;;;;;2.70;1.87;;;16.80;96.30;;;;;;4974069;28;20414;-78
2022/06/07 07:58:12;;;;;;;2.37;1.50;;;16.60;96.30;;;;;;4973874;28;20410;-76
2022/06/07 08:00:45;;;;;;;2.30;1.90;;;16.50;96.30;;;;;;4973825;28;20596;-76
2022/06/07 08:03:10;;;;;;;11.90;2.10;;;16.40;96.30;;;;;;4974004;28;20777;-77
2022/06/07 08:05:36;;;;;;;2.63;1.50;;;16.40;96.30;;;;;;4974026;28;20425;-76
2022/06/07 08:08:02;;;;;;;4.27;1.60;;;16.50;96.30;;;;;;4973776;28;20325;-77
2022/06/07 08:10:29;;;;;;;16.93;1.83;;;16.50;96.30;;;;;;4973934;28;20186;-76
2022/06/07 08:12:58;;;;;;;4.40;1.87;;;16.40;96.30;;;;;;4956531;28;20472;-76
2022/06/07 08:15:24;;;;;;;3.80;2.07;;;16.40;96.30;;;;;;4979352;28;20900;-76
2022/06/07 08:17:52;;;;;;;3.53;1.97;;;16.70;96.30;;;;;;4978677;28;20504;-76
2022/06/07 08:20:18;;;;;;;5.53;1.80;;;16.90;96.30;;;;;;4972887;28;20413;-76
2022/06/07 08:22:44;;;;;;;2.03;1.50;;;17.20;96.30;;;;;;4956180;28;20917;-76
2022/06/07 08:25:10;;;;;;;3.60;1.90;;;17.70;96.30;;;;;;4991695;28;20421;-76
2022/06/07 08:27:36;;;;;;;1.97;1.43;;;18.20;96.30;;;;;;4974598;28;20185;-77
2022/06/07 08:30:04;;;;;;;4.03;1.40;;;18.30;96.30;;;;;;4992533;28;20409;-77
2022/06/07 08:32:30;;;;;;;5.37;1.87;;;18.50;96.30;;;;;;4992443;28;20996;-77
2022/06/07 08:37:40;;;;;;;3.67;1.70;;;18.80;96.30;;;;;;4992217;28;20172;-77
2022/06/07 08:40:17;;;;;;;4.90;2.00;;;19.20;96.30;;;;;;4992811;28;20432;-78
2022/06/07 08:42:51;;;;;;;3.03;1.50;;;19.60;96.30;;;;;;4992671;28;20264;-76
2022/06/07 08:45:21;;;;;;;6.47;1.70;;;19.70;96.30;;;;;;4992886;28;20415;-76
2022/06/07 08:47:52;;;;;;;3.37;1.77;;;19.90;96.30;;;;;;4992529;28;20405;-76
2022/06/07 08:50:35;;;;;;;2.50;1.60;;;20.00;96.30;;;;;;4992661;28;20416;-76
2022/06/07 08:53:17;;;;;;;3.47;2.27;;;20.90;96.30;;;;;;4992567;28;20451;-76
2022/06/07 08:55:53;;;;;;;3.87;1.80;;;21.90;96.30;;;;;;4975202;28;20499;-76
2022/06/07 08:58:30;;;;;;;2.63;2.10;;;21.90;96.30;;;;;;4992340;28;20776;-76
2022/06/07 09:00:59;;;;;;;2.43;1.73;;;21.70;96.30;;;;;;4974950;28;20456;-76
2022/06/07 09:03:51;;;;;;;3.03;1.60;;;21.60;96.30;;;;;;4992737;28;20909;-76
2022/06/07 09:06:32;;;;;;;2.50;1.30;;;22.20;96.30;;;;;;4992636;28;20889;-77
2022/06/07 09:08:59;;;;;;;4.03;1.37;;;22.80;93.20;;;;;;4974900;28;20439;-76
2022/06/07 09:14:47;;;;;;;1.40;1.30;;;24.40;94.50;;;;;;4992578;28;20412;-76
2022/06/07 09:17:21;;;;;;;2.10;1.30;;;24.70;90.20;;;;;;4991227;28;20903;-76
2022/06/07 09:19:49;;;;;;;8.53;1.53;;;24.00;87.90;;;;;;4992305;28;20948;-76
2022/06/07 09:22:18;;;;;;;5.07;1.37;;;23.20;90.50;;;;;;4992368;28;20430;-76
2022/06/07 09:25:04;;;;;;;4.90;1.33;;;23.00;96.00;;;;;;4992496;28;20417;-76
2022/06/07 09:27:33;;;;;;;1.40;1.30;;;22.80;96.30;;;;;;4992405;28;20423;-76
2022/06/07 09:30:08;;;;;;;5.73;1.50;;;22.70;92.80;;;;;;4992851;28;20416;-78
2022/06/07 09:32:36;;;;;;;4.10;1.23;;;22.70;95.80;;;;;;4982835;28;20465;-77
2022/06/07 09:35:34;;;;;;;3.47;1.60;;;23.00;93.40;;;;;;4991183;28;20433;-78
2022/06/07 09:38:06;;;;;;;2.37;1.30;;;22.70;93.50;;;;;;4992023;28;20653;-76
2022/06/07 09:40:36;;;;;;;8.37;1.60;;;22.40;94.60;;;;;;4992043;28;20428;-77
2022/06/07 09:43:12;;;;;;;2.63;1.00;;;22.40;96.30;;;;;;4990430;28;20433;-76
2022/06/07 09:45:52;;;;;;;2.70;1.20;;;22.60;92.50;;;;;;4955234;28;20468;-76
2022/06/07 09:48:25;;;;;;;4.20;1.30;;;22.70;95.30;;;;;;4972373;28;20497;-76
2022/06/07 09:51:19;;;;;;;2.53;1.10;;;22.70;93.00;;;;;;4955322;28;20992;-76
2022/06/07 09:54:02;;;;;;;6.80;1.47;;;22.50;94.50;;;;;;4975402;28;20460;-76
2022/06/07 09:57:02;;;;;;;5.57;1.20;;;22.50;95.20;;;;;;4976436;28;20809;-76
2022/06/07 09:59:55;;;;;;;3.50;1.40;;;23.00;92.00;;;;;;4958488;28;20429;-76
2022/06/07 10:02:36;;;;;;;3.10;1.40;;;22.80;93.70;;;;;;4975931;28;20468;-77
2022/06/07 10:05:41;;;;;;;5.23;1.27;;;22.80;94.80;;;;;;4975990;28;20795;-76
2022/06/07 10:08:20;;;;;;;3.70;1.67;;;22.60;91.00;;;;;;4941782;28;20429;-77
2022/06/07 10:11:02;;;;;;;4.97;1.40;;;22.50;93.30;;;;;;4975962;28;20441;-76
2022/06/07 10:13:43;;;;;;;2.70;1.33;;;22.40;94.00;;;;;;4975895;28;20461;-76
2022/06/07 10:16:35;;;;;;;2.53;1.60;;;22.90;89.90;;;;;;4976652;28;20414;-75
2022/06/07 10:19:07;;;;;;;1.23;0.90;;;23.10;88.90;;;;;;4976077;28;20429;-74
2022/06/07 10:21:42;;;;;;;2.30;1.30;;;23.20;90.20;;;;;;4988013;28;20436;-76
2022/06/07 10:24:26;;;;;;;5.63;1.57;;;23.30;88.50;;;;;;4995197;28;20431;-76
2022/06/07 10:27:14;;;;;;;1.77;0.90;;;23.20;88.20;;;;;;4995322;28;20417;-76
2022/06/07 10:30:15;;;;;;;2.63;1.10;;;23.00;89.40;;;;;;4995027;28;20428;-76
2022/06/07 10:33:15;;;;;;;1.20;0.90;;;23.40;92.10;;;;;;4995160;28;20972;-75
2022/06/07 10:35:51;;;;;;;3.70;1.40;;;23.40;89.60;;;;;;4977732;28;20432;-75
2022/06/07 10:38:35;;;;;;;2.33;1.00;;;23.20;89.80;;;;;;4994870;28;20455;-75
2022/06/07 10:41:21;;;;;;;2.87;1.10;;;23.50;85.70;;;;;;4995066;28;20930;-75
2022/06/07 10:43:58;;;;;;;1.97;0.87;;;23.80;84.60;;;;;;4994999;28;20415;-76
2022/06/07 10:46:27;;;;;;;2.80;1.30;;;23.80;86.20;;;;;;4977485;28;20408;-75
2022/06/07 10:49:10;;;;;;;1.00;0.90;;;24.10;82.90;;;;;;4994788;28;20515;-76
2022/06/07 10:54:37;;;;;;;2.60;1.00;;;24.30;85.30;;;;;;4995192;28;20404;-77
2022/06/07 10:57:12;;;;;;;6.00;1.03;;;24.80;78.20;;;;;;4993839;28;20419;-77
2022/06/07 10:59:41;;;;;;;1.23;0.80;;;24.80;83.80;;;;;;4994263;28;21145;-77
2022/06/07 11:02:37;;;;;;;2.50;1.20;;;24.90;82.70;;;;;;4994480;28;20463;-77
2022/06/07 11:11:12;;;;;;;2.07;1.30;;;24.00;89.30;;;;;;4994556;28;20427;-77
2022/06/07 11:13:57;;;;;;;2.87;1.40;;;24.20;87.80;;;;;;4994311;28;20488;-76
2022/06/07 11:16:39;;;;;;;2.83;1.10;;;24.30;82.20;;;;;;4994446;28;20408;-77
2022/06/07 11:19:05;;;;;;;4.67;1.00;;;23.70;81.60;;;;;;4994004;28;20405;-77
2022/06/07 11:21:34;;;;;;;3.20;1.00;;;23.80;84.40;;;;;;4994192;28;20563;-77
2022/06/07 11:24:17;;;;;;;7.30;1.20;;;24.00;85.40;;;;;;4994154;28;20660;-77
2022/06/07 11:27:09;;;;;;;4.50;1.43;;;24.10;83.80;;;;;;4994282;28;21066;-77
2022/06/07 11:29:34;;;;;;;4.03;1.00;;;24.40;86.90;;;;;;4993943;28;20412;-76
2022/06/07 11:32:02;;;;;;;1.20;1.03;;;24.70;89.30;;;;;;4976583;28;20510;-77
2022/06/07 11:34:32;;;;;;;2.40;1.00;;;24.40;84.30;;;;;;4994078;28;20196;-77
2022/06/07 11:37:16;;;;;;;11.40;1.10;;;24.50;84.50;;;;;;4976646;28;20451;-77
2022/06/07 11:39:44;;;;;;;4.20;1.17;;;24.30;85.50;;;;;;4993861;28;20411;-77
2022/06/07 11:42:13;;;;;;;5.07;1.27;;;24.30;85.50;;;;;;4976233;28;20440;-77
2022/06/07 11:45:06;;;;;;;4.53;1.10;;;24.20;84.70;;;;;;4976643;28;20420;-77
2022/06/07 11:47:45;;;;;;;1.30;1.20;;;24.30;80.80;;;;;;4993665;28;20452;-77
2022/06/07 11:50:29;;;;;;;3.20;1.23;;;24.80;84.40;;;;;;4993793;28;20915;-77
2022/06/07 11:53:20;;;;;;;6.63;1.20;;;24.80;83.70;;;;;;4993647;28;20459;-77
2022/06/07 11:55:55;;;;;;;6.83;1.40;;;24.70;83.80;;;;;;4980337;28;20454;-77
2022/06/07 11:58:49;;;;;;;2.40;1.00;;;24.60;83.50;;;;;;4993354;28;20824;-77
2022/06/07 12:01:33;;;;;;;1.87;0.90;;;24.20;84.40;;;;;;4993315;28;20494;-77
2022/06/07 12:04:28;;;;;;;7.40;1.20;;;23.70;84.70;;;;;;4976088;28;20451;-78
2022/06/07 12:06:58;;;;;;;5.53;1.37;;;23.30;86.70;;;;;;4993252;28;20408;-78
2022/06/07 12:09:24;;;;;;;4.20;1.17;;;23.00;83.90;;;;;;4993010;28;20503;-77
2022/06/07 12:11:49;;;;;;;1.70;1.20;;;22.60;87.40;;;;;;4993168;28;20548;-77
2022/06/07 12:14:29;;;;;;;2.53;1.00;;;22.40;87.40;;;;;;4993258;28;20181;-78
2022/06/07 12:16:54;;;;;;;2.90;1.27;;;22.10;88.10;;;;;;4975418;28;20177;-77
2022/06/07 12:19:24;;;;;;;4.67;1.50;;;21.80;89.90;;;;;;4993011;28;20943;-77
2022/06/07 12:22:04;;;;;;;11.40;1.53;;;21.30;91.20;;;;;;4992959;28;20280;-77
2022/06/07 12:24:39;;;;;;;5.27;1.33;;;20.70;92.80;;;;;;4993222;28;20889;-77
2022/06/07 12:27:28;;;;;;;1.87;1.30;;;20.00;93.60;;;;;;4975890;28;20418;-77
2022/06/07 12:30:00;;;;;;;1.93;1.00;;;19.60;95.50;;;;;;4993188;28;20417;-77
2022/06/07 12:32:33;;;;;;;3.57;1.17;;;19.40;96.30;;;;;;4975363;28;20824;-77
2022/06/07 12:35:14;;;;;;;3.23;1.13;;;19.20;96.30;;;;;;4975770;28;20417;-77
2022/06/07 12:37:40;;;;;;;3.90;1.10;;;19.10;96.30;;;;;;4992765;28;20456;-78
2022/06/07 12:40:20;;;;;;;5.53;1.17;;;19.10;96.30;;;;;;4992956;28;20404;-78
2022/06/07 12:42:47;;;;;;;2.70;1.10;;;19.40;96.30;;;;;;4992999;28;20397;-78
2022/06/07 12:45:53;;;;;;;1.90;1.07;;;19.60;96.30;;;;;;4992880;28;20980;-78
2022/06/07 12:48:19;;;;;;;1.17;0.80;;;19.80;96.30;;;;;;4979216;28;20819;-78
2022/06/07 12:50:46;;;;;;;1.53;1.10;;;20.00;96.30;;;;;;4992709;28;20795;-78
2022/06/07 12:53:25;;;;;;;3.47;1.30;;;20.00;96.30;;;;;;4992539;28;20465;-78
2022/06/07 12:56:02;;;;;;;3.70;1.47;;;20.30;96.30;;;;;;4992832;28;20487;-79
2022/06/07 12:58:31;;;;;;;2.30;1.03;;;20.40;96.30;;;;;;4993449;28;20904;-79
2022/06/07 13:00:56;;;;;;;2.27;1.20;;;20.70;96.00;;;;;;4993121;28;20448;-80
2022/06/07 13:03:25;;;;;;;3.27;1.07;;;20.60;95.50;;;;;;4993955;28;20423;-78
2022/06/07 13:05:59;;;;;;;4.93;1.70;;;20.60;96.30;;;;;;4993446;28;20700;-77
2022/06/07 13:08:26;;;;;;;1.60;1.07;;;20.70;96.30;;;;;;4976569;28;20424;-79
2022/06/07 13:10:52;;;;;;;1.77;1.23;;;20.70;96.30;;;;;;4993027;28;20448;-79
2022/06/07 13:13:25;;;;;;;2.60;1.10;;;20.60;96.20;;;;;;4990523;28;20475;-79
2022/06/07 13:15:58;;;;;;;2.77;1.30;;;20.60;96.30;;;;;;4984935;28;20515;-77
2022/06/07 13:18:31;;;;;;;3.80;1.17;;;20.70;96.30;;;;;;4982555;28;20924;-77
2022/06/07 13:21:14;;;;;;;2.03;0.90;;;20.80;93.80;;;;;;4989863;28;20448;-77
2022/06/07 13:23:42;;;;;;;1.83;1.20;;;21.30;96.30;;;;;;4975255;28;20790;-78
2022/06/07 13:26:16;;;;;;;2.93;1.20;;;21.90;96.30;;;;;;4992800;28;20424;-78
2022/06/07 13:28:43;;;;;;;1.93;1.30;;;22.40;91.50;;;;;;4995715;28;20412;-78
2022/06/07 13:31:44;;;;;;;2.20;1.50;;;22.80;92.30;;;;;;4996934;28;20432;-78
2022/06/07 13:34:27;;;;;;;5.33;1.13;;;23.40;88.40;;;;;;4996834;28;20491;-78
2022/06/07 13:37:13;;;;;;;7.43;1.13;;;24.00;85.60;;;;;;4996218;28;20401;-78
2022/06/07 13:39:40;;;;;;;4.00;1.20;;;24.30;81.80;;;;;;4995871;28;20451;-78
2022/06/07 13:42:24;;;;;;;4.40;1.10;;;24.30;84.00;;;;;;4996289;28;20439;-78
2022/06/07 13:45:11;;;;;;;2.60;1.40;;;24.10;81.70;;;;;;4996230;28;20431;-78
2022/06/07 13:47:44;;;;;;;4.50;1.30;;;24.10;80.20;;;;;;4995956;28;20404;-78
2022/06/07 13:53:24;;;;;;;3.03;1.20;;;24.40;81.10;;;;;;4997520;28;20467;-78
2022/06/07 13:56:05;;;;;;;1.70;1.10;;;24.70;77.90;;;;;;4997414;28;20498;-80
2022/06/07 13:58:32;;;;;;;2.10;0.97;;;24.50;79.00;;;;;;4996560;28;20411;-78
2022/06/07 14:01:22;;;;;;;6.93;1.30;;;24.40;83.20;;;;;;4996422;28;20456;-77
2022/06/07 14:03:53;;;;;;;1.93;1.00;;;24.20;79.90;;;;;;4995856;28;20408;-78
2022/06/07 14:06:35;;;;;;;2.50;1.20;;;24.50;79.20;;;;;;4995926;28;20508;-78
2022/06/07 14:09:05;;;;;;;1.60;1.17;;;24.60;78.20;;;;;;4995592;28;20455;-79
2022/06/07 14:11:34;;;;;;;1.13;0.80;;;24.20;77.20;;;;;;4995981;28;21003;-78
2022/06/07 14:14:00;;;;;;;8.93;1.10;;;24.60;77.50;;;;;;4995678;28;20963;-79
2022/06/07 14:16:32;;;;;;;4.30;1.33;;;24.70;80.50;;;;;;4995689;28;20400;-77
2022/06/07 14:19:01;;;;;;;4.47;1.20;;;24.70;80.00;;;;;;4977972;28;20184;-78
2022/06/07 14:21:28;;;;;;;2.37;1.20;;;24.50;78.90;;;;;;4995391;28;20439;-78
2022/06/07 14:23:53;;;;;;;2.40;0.90;;;24.60;82.00;;;;;;4995187;28;20420;-78
2022/06/07 14:26:19;;;;;;;3.73;1.10;;;24.20;81.00;;;;;;4995377;28;20420;-78
2022/06/07 14:28:45;;;;;;;2.97;1.63;;;23.90;80.00;;;;;;4995190;28;20204;-77
2022/06/07 14:31:19;;;;;;;1.93;0.90;;;23.50;81.70;;;;;;4977729;28;20228;-78
2022/06/07 14:33:45;;;;;;;8.43;1.73;;;23.70;79.90;;;;;;4995436;28;20645;-78
2022/06/07 14:36:12;;;;;;;4.13;1.13;;;23.90;81.90;;;;;;4995177;28;20412;-78
2022/06/07 14:38:37;;;;;;;3.60;1.10;;;23.80;82.20;;;;;;4994597;28;20178;-78
2022/06/07 14:41:03;;;;;;;3.77;1.37;;;23.30;81.90;;;;;;4995115;28;20519;-77
2022/06/07 14:43:28;;;;;;;2.37;0.80;;;22.80;81.90;;;;;;4994863;28;20169;-78
2022/06/07 14:46:01;;;;;;;2.50;1.13;;;22.70;82.10;;;;;;4994378;28;20673;-78
2022/06/07 14:48:42;;;;;;;3.43;1.00;;;22.70;80.20;;;;;;4977487;28;20178;-79
2022/06/07 14:51:29;;;;;;;1.77;1.10;;;22.60;82.90;;;;;;4994931;28;20432;-79
2022/06/07 14:54:01;;;;;;;2.93;1.13;;;23.00;85.80;;;;;;4994620;28;20960;-77
2022/06/07 14:56:30;;;;;;;2.37;1.10;;;22.80;83.00;;;;;;4994806;28;20435;-77
2022/06/07 14:58:56;;;;;;;2.70;1.27;;;23.10;83.90;;;;;;4977137;28;20447;-76
2022/06/07 15:01:28;;;;;;;5.30;1.10;;;23.30;85.70;;;;;;4994406;28;20522;-78
2022/06/07 15:03:54;;;;;;;2.63;1.13;;;23.00;83.10;;;;;;4994673;28;20164;-76
2022/06/07 15:06:25;;;;;;;3.93;1.00;;;22.60;84.90;;;;;;4994464;28;20772;-77
2022/06/07 15:08:54;;;;;;;3.60;1.00;;;22.60;84.60;;;;;;4994287;28;20169;-76
2022/06/07 15:11:32;;;;;;;0.90;0.80;;;22.80;85.30;;;;;;4994277;28;20432;-75
2022/06/07 15:13:58;;;;;;;5.33;1.13;;;23.00;82.60;;;;;;4994428;28;20456;-77
2022/06/07 15:16:26;;;;;;;4.10;0.90;;;22.90;82.60;;;;;;4976958;28;20412;-75
2022/06/07 15:18:52;;;;;;;10.17;1.17;;;22.60;83.60;;;;;;4994112;28;20413;-76
2022/06/07 15:21:20;;;;;;;5.00;1.07;;;22.70;85.50;;;;;;4994300;28;20435;-76
2022/06/07 15:23:47;;;;;;;9.53;1.00;;;22.70;81.80;;;;;;4994142;28;20597;-74
2022/06/07 15:26:19;;;;;;;4.67;0.90;;;22.70;83.30;;;;;;4994213;28;20420;-75
2022/06/07 15:28:44;;;;;;;1.80;0.97;;;23.00;84.70;;;;;;4994017;28;20424;-76
2022/06/07 15:31:13;;;;;;;1.13;0.90;;;23.40;82.10;;;;;;4994082;28;20432;-75
2022/06/07 15:33:40;;;;;;;1.83;0.93;;;23.10;81.90;;;;;;4976548;28;20197;-76
2022/06/07 15:36:05;;;;;;;2.30;1.17;;;22.80;82.80;;;;;;4980894;28;20422;-76
2022/06/07 15:38:32;;;;;;;2.30;1.10;;;22.70;87.10;;;;;;4978826;28;20920;-77
2022/06/07 15:40:58;;;;;;;7.77;1.30;;;23.10;86.70;;;;;;4993962;28;20395;-79
2022/06/07 15:43:28;;;;;;;3.70;1.40;;;23.40;83.40;;;;;;4993908;28;20944;-76
2022/06/07 15:45:54;;;;;;;3.47;1.20;;;23.40;84.90;;;;;;4992617;28;20549;-77
2022/06/07 15:48:23;;;;;;;4.53;1.23;;;23.70;81.60;;;;;;4974034;28;20917;-77
2022/06/07 15:50:50;;;;;;;3.47;1.00;;;23.60;79.70;;;;;;4973849;28;20230;-77
2022/06/07 15:53:17;;;;;;;1.10;1.00;;;23.40;82.40;;;;;;4974782;28;20461;-78
2022/06/07 15:55:43;;;;;;;2.03;1.03;;;23.20;83.60;;;;;;4984766;28;20779;-77
2022/06/07 16:00:54;;;;;;;3.83;1.20;;;23.20;83.60;;;;;;4989131;28;20289;-78
2022/06/07 16:03:20;;;;;;;4.80;1.30;;;23.20;85.30;;;;;;4975911;28;20495;-78
2022/06/07 16:05:46;;;;;;;1.40;1.03;;;22.90;83.40;;;;;;4957131;28;20174;-77
2022/06/07 16:08:14;;;;;;;1.93;1.00;;;22.50;83.40;;;;;;4975392;28;20429;-76
2022/06/07 16:10:40;;;;;;;2.30;1.00;;;22.10;86.10;;;;;;4993433;28;20677;-78
2022/06/07 16:13:07;;;;;;;2.43;0.90;;;21.90;86.90;;;;;;4975844;28;20456;-78
2022/06/07 16:15:34;;;;;;;3.00;1.13;;;22.00;86.00;;;;;;4996462;28;20425;-78
2022/06/07 16:18:01;;;;;;;3.30;1.00;;;22.50;85.80;;;;;;4968770;28;20501;-80
2022/06/07 16:20:28;;;;;;;1.57;1.03;;;22.90;82.90;;;;;;4956456;28;20519;-79
2022/06/07 16:22:53;;;;;;;4.60;1.30;;;23.00;84.00;;;;;;4973830;28;20429;-80
2022/06/07 16:25:19;;;;;;;2.20;0.90;;;23.10;83.70;;;;;;4974007;28;20414;-81
2022/06/07 16:33:19;;;;;;;1.87;1.10;;;22.80;82.20;;;;;;4994229;28;20468;-78
2022/06/07 16:35:56;;;;;;;1.97;1.00;;;22.80;82.60;;;;;;4994924;28;20393;-78
2022/06/07 16:38:26;;;;;;;6.23;1.50;;;22.40;81.20;;;;;;4979739;28;20424;-77
2022/06/07 16:40:52;;;;;;;5.30;1.50;;;22.50;84.90;;;;;;4970641;28;20507;-78
2022/06/07 16:46:04;;;;;;;2.97;1.93;;;22.40;84.10;;;;;;4983514;28;20824;-77
2022/06/07 16:48:31;;;;;;;3.67;1.60;;;22.70;87.10;;;;;;4992611;28;20424;-77
2022/06/07 16:50:56;;;;;;;8.27;1.10;;;22.90;86.40;;;;;;4992766;28;20840;-78
2022/06/07 16:53:22;;;;;;;4.13;0.90;;;23.00;84.70;;;;;;4992864;28;20606;-77
2022/06/07 16:55:47;;;;;;;2.90;0.87;;;23.20;83.10;;;;;;4992501;28;20180;-77
2022/06/07 16:58:13;;;;;;;3.27;1.30;;;22.90;83.70;;;;;;4992759;28;20204;-77
2022/06/07 17:00:40;;;;;;;2.70;1.10;;;22.80;82.40;;;;;;4992647;28;20272;-78
2022/06/07 17:03:06;;;;;;;1.70;1.10;;;22.60;81.50;;;;;;4974954;28;20433;-77
2022/06/07 17:05:40;;;;;;;4.10;0.93;;;22.40;80.60;;;;;;4973419;28;20413;-77
2022/06/07 17:08:07;;;;;;;4.00;0.93;;;22.40;83.60;;;;;;4979740;28;20988;-78
2022/06/07 17:10:34;;;;;;;2.50;1.20;;;22.70;83.70;;;;;;4992623;28;20539;-77
2022/06/07 17:13:00;;;;;;;3.03;1.17;;;22.80;82.30;;;;;;4992757;28;20460;-78
2022/06/07 17:15:26;;;;;;;3.67;1.20;;;23.20;80.30;;;;;;4992715;28;20492;-78
2022/06/07 17:17:52;;;;;;;1.67;0.83;;;23.00;80.60;;;;;;4992317;28;20512;-78
2022/06/07 17:20:18;;;;;;;2.43;0.93;;;22.90;84.10;;;;;;4992500;28;20196;-77
2022/06/07 17:22:43;;;;;;;2.30;1.00;;;23.10;83.40;;;;;;4975067;28;20185;-78
2022/06/07 17:25:10;;;;;;;2.67;0.90;;;23.30;81.20;;;;;;4992534;28;20588;-77
2022/06/07 17:27:35;;;;;;;1.53;0.77;;;23.30;83.30;;;;;;4992274;28;20640;-78
2022/06/07 17:30:01;;;;;;;4.17;0.90;;;23.40;82.20;;;;;;4992537;28;20465;-78
2022/06/07 17:32:27;;;;;;;5.27;1.30;;;23.10;84.60;;;;;;4992350;28;20201;-76
2022/06/07 17:34:52;;;;;;;3.47;1.00;;;23.00;85.80;;;;;;4988532;28;20662;-77
2022/06/07 17:37:18;;;;;;;3.43;1.00;;;22.80;82.70;;;;;;4972663;28;20516;-77
2022/06/07 17:39:44;;;;;;;3.10;1.00;;;22.80;85.30;;;;;;4972455;28;20254;-77
2022/06/07 17:42:10;;;;;;;8.77;1.07;;;22.70;84.60;;;;;;4972887;28;20586;-77